Time;durP1;ratioP1;P1;durP2;ratioP2;P2;SDS_P1;SDS_P2;PMS_P1;PMS_P2;Temp;Humidity;BMP_temperature;BMP_pressure;BME280_temperature;BME280_humidity;BME280_pressure;Samples;Min_cycle;Max_cycle;Signal;HPM_P1;HPM_P2
2023/09/14 00:00:41;;;;;;;5.80;2.63;;;;;;;-148.15;100.00;61821.78;4935819;29;20030;-90
2023/09/14 00:03:07;;;;;;;5.88;2.85;;;;;;;-148.15;100.00;61821.78;4952797;29;20019;-91
2023/09/14 00:05:37;;;;;;;6.97;3.00;;;;;;;-148.15;100.00;61821.78;4940902;29;20115;-90
2023/09/14 00:08:03;;;;;;;7.32;3.20;;;;;;;-148.15;100.00;61821.78;4928873;29;20042;-90
2023/09/14 00:10:28;;;;;;;6.50;3.40;;;;;;;-148.15;100.00;61821.78;4921468;29;20107;-90
2023/09/14 00:12:55;;;;;;;4.80;3.40;;;;;;;-148.15;100.00;61821.78;4943694;29;20035;-89
2023/09/14 00:15:20;;;;;;;8.63;3.47;;;;;;;-148.15;100.00;61821.78;4944768;29;20275;-90
2023/09/14 00:17:46;;;;;;;6.30;2.88;;;;;;;-148.15;100.00;61821.78;4934737;29;20407;-90
2023/09/14 00:20:20;;;;;;;7.97;3.40;;;;;;;-148.15;100.00;61821.78;4934198;29;20031;-90
2023/09/14 00:22:47;;;;;;;6.35;3.47;;;;;;;-148.15;100.00;61821.78;4915339;29;20019;-90
2023/09/14 00:25:12;;;;;;;8.40;3.58;;;;;;;-148.15;100.00;61821.78;4940113;29;20027;-89
2023/09/14 00:27:38;;;;;;;6.60;3.30;;;;;;;-148.15;100.00;61821.78;4950196;29;20035;-90
2023/09/14 00:30:03;;;;;;;8.63;3.40;;;;;;;-148.15;100.00;61821.78;4947700;29;20032;-89
2023/09/14 00:32:29;;;;;;;4.05;3.30;;;;;;;-148.15;100.00;61821.78;4952760;29;20086;-90
2023/09/14 00:34:55;;;;;;;9.40;3.35;;;;;;;-148.15;100.00;61821.78;4937188;29;20054;-90
2023/09/14 00:37:21;;;;;;;10.07;3.57;;;;;;;-148.15;100.00;61821.78;4938930;29;20023;-90
2023/09/14 00:39:47;;;;;;;6.38;3.80;;;;;;;-148.15;100.00;61821.78;4940068;29;20028;-90
2023/09/14 00:42:12;;;;;;;8.10;3.70;;;;;;;-148.15;100.00;61821.78;4937947;29;20036;-89
2023/09/14 00:44:37;;;;;;;4.75;3.20;;;;;;;-148.15;100.00;61821.78;4935733;29;20035;-90
2023/09/14 00:47:03;;;;;;;6.90;4.10;;;;;;;-148.15;100.00;61821.78;4921552;29;20087;-89
2023/09/14 00:49:28;;;;;;;6.87;3.67;;;;;;;-148.15;100.00;61821.78;4952219;29;20080;-90
2023/09/14 00:51:54;;;;;;;9.07;3.60;;;;;;;-148.15;100.00;61821.78;4941937;29;20032;-90
2023/09/14 00:54:20;;;;;;;8.32;3.90;;;;;;;-148.15;100.00;61821.78;4921078;29;20039;-90
2023/09/14 00:56:46;;;;;;;7.93;3.35;;;;;;;-148.15;100.00;61821.78;4953512;29;20023;-89
2023/09/14 00:59:11;;;;;;;6.13;3.77;;;;;;;-148.15;100.00;61821.78;4953659;29;20039;-89
2023/09/14 01:01:37;;;;;;;11.77;4.00;;;;;;;-148.15;100.00;61821.78;4951172;29;20031;-90
2023/09/14 01:04:04;;;;;;;7.00;3.87;;;;;;;-148.15;100.00;61821.78;4928946;29;20123;-90
2023/09/14 01:06:32;;;;;;;6.05;3.50;;;;;;;-148.15;100.00;61821.78;4897088;29;20440;-89
2023/09/14 01:08:57;;;;;;;8.25;3.45;;;;;;;-148.15;100.00;61821.78;4896911;29;20044;-90
2023/09/14 01:11:23;;;;;;;7.03;3.43;;;;;;;-148.15;100.00;61821.78;4920161;29;20035;-89
2023/09/14 01:14:22;;;;;;;7.60;3.80;;;;;;;-148.15;100.00;61821.78;4954474;29;20031;-90
2023/09/14 01:17:14;;;;;;;8.13;3.70;;;;;;;-148.15;100.00;61821.78;4929870;29;20047;-89
2023/09/14 01:20:03;;;;;;;7.05;3.65;;;;;;;-148.15;100.00;61821.78;4934805;29;20039;-90
2023/09/14 01:22:49;;;;;;;6.03;3.70;;;;;;;-148.15;100.00;61821.78;4934714;29;20472;-90
2023/09/14 01:25:20;;;;;;;6.07;3.55;;;;;;;-148.15;100.00;61821.78;4934681;29;20028;-90
2023/09/14 01:27:46;;;;;;;5.43;3.50;;;;;;;-148.15;100.00;61821.78;4937470;29;20038;-91
2023/09/14 01:30:11;;;;;;;8.60;3.63;;;;;;;-148.15;100.00;61821.78;4953352;29;20032;-89
2023/09/14 01:32:37;;;;;;;8.13;3.70;;;;;;;-148.15;100.00;61821.78;4916249;29;20119;-90
2023/09/14 01:35:04;;;;;;;7.87;3.57;;;;;;;-148.15;100.00;61821.78;4916563;29;20067;-90
2023/09/14 01:37:30;;;;;;;12.40;3.92;;;;;;;-148.15;100.00;61821.78;4917237;29;20039;-91
2023/09/14 01:39:56;;;;;;;7.97;4.13;;;;;;;-148.15;100.00;61821.78;4915975;29;20036;-90
2023/09/14 01:42:23;;;;;;;4.93;3.53;;;;;;;-148.15;100.00;61821.78;4932688;29;20128;-91
2023/09/14 01:44:50;;;;;;;4.63;3.50;;;;;;;-148.15;100.00;61821.78;4953246;29;20031;-91
2023/09/14 01:47:16;;;;;;;4.32;3.15;;;;;;;-148.15;100.00;61821.78;4936984;29;20055;-89
2023/09/14 01:49:42;;;;;;;5.63;3.63;;;;;;;-148.15;100.00;61821.78;4935319;29;20100;-90
2023/09/14 01:52:08;;;;;;;6.70;3.70;;;;;;;-148.15;100.00;61821.78;4934413;29;20272;-89
2023/09/14 01:54:33;;;;;;;7.18;3.63;;;;;;;-148.15;100.00;61821.78;4934588;29;20032;-89
2023/09/14 01:56:58;;;;;;;6.80;3.37;;;;;;;-148.15;100.00;61821.78;4941344;29;20422;-88
2023/09/14 01:59:24;;;;;;;5.80;3.07;;;;;;;-148.15;100.00;61821.78;4956001;29;20039;-88
2023/09/14 02:01:49;;;;;;;7.87;3.40;;;;;;;-148.15;100.00;61821.78;4945270;29;20558;-89
2023/09/14 02:04:14;;;;;;;7.07;3.50;;;;;;;-148.15;100.00;61821.78;4917884;29;20032;-89
2023/09/14 02:06:40;;;;;;;5.65;3.38;;;;;;;-148.15;100.00;61821.78;4917922;29;20020;-89
2023/09/14 02:09:05;;;;;;;5.17;3.70;;;;;;;-148.15;100.00;61821.78;4916087;29;20032;-89
2023/09/14 02:11:31;;;;;;;7.47;3.33;;;;;;;-148.15;100.00;61821.78;4933694;29;20027;-88
2023/09/14 02:13:56;;;;;;;5.40;3.63;;;;;;;-148.15;100.00;61821.78;4936827;29;20110;-89
2023/09/14 02:16:22;;;;;;;8.63;3.40;;;;;;;-148.15;100.00;61821.78;4934431;29;20495;-89
2023/09/14 02:18:47;;;;;;;4.47;2.80;;;;;;;-148.15;100.00;61821.78;4932909;29;20028;-89
2023/09/14 02:21:16;;;;;;;10.85;2.90;;;;;;;-148.15;100.00;61821.78;4932469;29;20439;-88
2023/09/14 02:23:41;;;;;;;6.43;3.50;;;;;;;-148.15;100.00;61821.78;4916979;29;20067;-89
2023/09/14 02:26:07;;;;;;;5.53;3.33;;;;;;;-148.15;100.00;61821.78;4935178;29;20075;-89
2023/09/14 02:28:32;;;;;;;8.20;3.30;;;;;;;-148.15;100.00;61821.78;4933382;29;20582;-89
2023/09/14 02:30:57;;;;;;;5.40;2.93;;;;;;;-148.15;100.00;61821.78;4948529;29;20027;-89
2023/09/14 02:33:23;;;;;;;4.05;2.90;;;;;;;-148.15;100.00;61821.78;4948304;29;20036;-89
2023/09/14 02:35:50;;;;;;;8.80;3.37;;;;;;;-148.15;100.00;61821.78;4915096;29;20030;-89
2023/09/14 02:38:16;;;;;;;7.65;2.90;;;;;;;-148.15;100.00;61821.78;4914199;29;20043;-89
2023/09/14 02:40:41;;;;;;;6.13;2.87;;;;;;;-148.15;100.00;61821.78;4948859;29;20046;-89
2023/09/14 02:43:06;;;;;;;5.23;2.87;;;;;;;-148.15;100.00;61821.78;4952751;29;20031;-90
2023/09/14 02:45:32;;;;;;;5.33;3.13;;;;;;;-148.15;100.00;61821.78;4948243;29;20447;-89
2023/09/14 02:47:57;;;;;;;7.93;2.67;;;;;;;-148.15;100.00;61821.78;4943817;29;20043;-90
2023/09/14 02:50:22;;;;;;;7.80;3.00;;;;;;;-148.15;100.00;61821.78;4934113;29;20067;-89
2023/09/14 02:52:48;;;;;;;6.17;2.93;;;;;;;-148.15;100.00;61821.78;4933454;29;20106;-89
2023/09/14 02:55:13;;;;;;;5.53;2.93;;;;;;;-148.15;100.00;61821.78;4933984;29;20023;-89
2023/09/14 02:57:39;;;;;;;5.80;2.88;;;;;;;-148.15;100.00;61821.78;4933295;29;20056;-89
2023/09/14 03:00:12;;;;;;;6.97;3.47;;;;;;;-148.15;100.00;61821.78;4933980;29;20032;-89
2023/09/14 03:02:40;;;;;;;5.07;2.97;;;;;;;-148.15;100.00;61821.78;4948382;29;20110;-90
2023/09/14 03:05:06;;;;;;;8.25;3.33;;;;;;;-148.15;100.00;61821.78;4942137;29;20035;-90
2023/09/14 03:07:31;;;;;;;4.88;3.00;;;;;;;-148.15;100.00;61821.78;4931339;29;20118;-89
2023/09/14 03:09:56;;;;;;;5.90;2.70;;;;;;;-148.15;100.00;61821.78;4939228;29;20497;-90
2023/09/14 03:12:22;;;;;;;5.60;3.07;;;;;;;-148.15;100.00;61821.78;4914327;29;20020;-90
2023/09/14 03:14:47;;;;;;;4.97;3.13;;;;;;;-148.15;100.00;61821.78;4915202;29;20428;-90
2023/09/14 03:17:12;;;;;;;4.70;2.97;;;;;;;-148.15;100.00;61821.78;4918429;29;20051;-90
2023/09/14 03:19:38;;;;;;;5.68;2.85;;;;;;;-148.15;100.00;61821.78;4937249;29;20043;-90
2023/09/14 03:22:03;;;;;;;6.80;2.90;;;;;;;-148.15;100.00;61821.78;4933395;29;20484;-90
2023/09/14 03:24:29;;;;;;;6.50;2.87;;;;;;;-148.15;100.00;61821.78;4934583;29;20028;-90
2023/09/14 03:26:54;;;;;;;4.60;3.00;;;;;;;-148.15;100.00;61821.78;4936228;29;20027;-90
2023/09/14 03:29:19;;;;;;;3.60;2.58;;;;;;;-148.15;100.00;61821.78;4933454;29;20023;-90
2023/09/14 03:31:45;;;;;;;5.63;2.80;;;;;;;-148.15;100.00;61821.78;4933091;29;20043;-90
2023/09/14 03:34:10;;;;;;;6.73;2.87;;;;;;;-148.15;100.00;61821.78;4932323;29;20535;-90
2023/09/14 03:36:36;;;;;;;4.87;3.10;;;;;;;-148.15;100.00;61821.78;4945609;29;20123;-90
2023/09/14 03:39:02;;;;;;;5.25;2.90;;;;;;;-148.15;100.00;61821.78;4952503;29;20506;-90
2023/09/14 03:41:27;;;;;;;5.03;2.95;;;;;;;-148.15;100.00;61821.78;4951982;29;20019;-90
2023/09/14 03:43:53;;;;;;;4.10;2.80;;;;;;;-148.15;100.00;61821.78;4952535;29;20099;-90
2023/09/14 03:46:18;;;;;;;4.47;2.87;;;;;;;-148.15;100.00;61821.78;4952122;29;20027;-90
2023/09/14 03:48:43;;;;;;;6.63;3.13;;;;;;;-148.15;100.00;61821.78;4943655;29;20035;-90
2023/09/14 03:51:09;;;;;;;5.47;3.20;;;;;;;-148.15;100.00;61821.78;4918988;29;20031;-90
2023/09/14 03:53:35;;;;;;;5.23;3.20;;;;;;;-148.15;100.00;61821.78;4929931;29;20397;-90
2023/09/14 03:56:01;;;;;;;3.97;3.00;;;;;;;-148.15;100.00;61821.78;4932573;29;20038;-90
2023/09/14 03:58:27;;;;;;;4.05;3.10;;;;;;;-148.15;100.00;61821.78;4933471;29;20023;-91
2023/09/14 04:00:53;;;;;;;10.40;3.27;;;;;;;-148.15;100.00;61821.78;4932055;29;20030;-91
2023/09/14 04:03:19;;;;;;;9.68;3.20;;;;;;;-148.15;100.00;61821.78;4932706;29;20024;-90
2023/09/14 04:05:45;;;;;;;5.10;3.00;;;;;;;-148.15;100.00;61821.78;4937265;29;20035;-90
2023/09/14 04:08:11;;;;;;;7.57;3.13;;;;;;;-148.15;100.00;61821.78;4915890;29;20044;-91
2023/09/14 04:10:40;;;;;;;4.40;2.60;;;;;;;-148.15;100.00;61821.78;4913794;29;20598;-90
2023/09/14 04:13:32;;;;;;;4.93;3.00;;;;;;;-148.15;100.00;61821.78;4914173;29;20123;-90
2023/09/14 04:15:58;;;;;;;3.65;2.70;;;;;;;-148.15;100.00;61821.78;4913760;29;20028;-90
2023/09/14 04:18:24;;;;;;;6.75;3.00;;;;;;;-148.15;100.00;61821.78;4914073;29;20067;-89
2023/09/14 04:20:50;;;;;;;4.77;2.67;;;;;;;-148.15;100.00;61821.78;4927553;29;20769;-91
2023/09/14 04:23:16;;;;;;;7.57;2.88;;;;;;;-148.15;100.00;61821.78;4925027;29;20384;-90
2023/09/14 04:25:44;;;;;;;7.75;3.45;;;;;;;-148.15;100.00;61821.78;4932510;29;20028;-90
2023/09/14 04:28:12;;;;;;;8.97;3.03;;;;;;;-148.15;100.00;61821.78;4932649;29;20043;-90
2023/09/14 04:30:46;;;;;;;5.60;3.20;;;;;;;-148.15;100.00;61821.78;4933028;29;20335;-89
2023/09/14 04:33:12;;;;;;;5.28;2.55;;;;;;;-148.15;100.00;61821.78;4931963;29;20034;-89
2023/09/14 04:35:38;;;;;;;4.30;2.78;;;;;;;-148.15;100.00;61821.78;4932523;29;20103;-90
2023/09/14 04:38:03;;;;;;;3.70;2.80;;;;;;;-148.15;100.00;61821.78;4931875;29;20114;-89
2023/09/14 04:40:28;;;;;;;4.90;2.97;;;;;;;-148.15;100.00;61821.78;4924455;29;20040;-90
2023/09/14 04:42:54;;;;;;;6.00;2.73;;;;;;;-148.15;100.00;61821.78;4932367;29;20114;-91
2023/09/14 04:45:19;;;;;;;4.20;2.73;;;;;;;-148.15;100.00;61821.78;4935771;29;20302;-90
2023/09/14 04:47:44;;;;;;;5.77;3.07;;;;;;;-148.15;100.00;61821.78;4945118;29;20027;-89
2023/09/14 04:50:10;;;;;;;7.53;2.77;;;;;;;-148.15;100.00;61821.78;4917544;29;20028;-90
2023/09/14 04:52:35;;;;;;;8.80;3.10;;;;;;;-148.15;100.00;61821.78;4916768;29;20103;-89
2023/09/14 04:55:00;;;;;;;5.53;3.28;;;;;;;-148.15;100.00;61821.78;4926763;29;20071;-90
2023/09/14 04:57:26;;;;;;;8.37;3.13;;;;;;;-148.15;100.00;61821.78;4939126;29;20038;-92
2023/09/14 04:59:51;;;;;;;5.03;3.23;;;;;;;-148.15;100.00;61821.78;4926737;29;20579;-93
2023/09/14 05:02:16;;;;;;;5.03;3.03;;;;;;;-148.15;100.00;61821.78;4924411;29;20052;-94
2023/09/14 05:04:42;;;;;;;4.83;3.30;;;;;;;-148.15;100.00;61821.78;4935355;29;20488;-93
2023/09/14 05:07:07;;;;;;;7.83;3.30;;;;;;;-148.15;100.00;61821.78;4937930;29;20083;-92
2023/09/14 05:09:32;;;;;;;6.00;3.03;;;;;;;-148.15;100.00;61821.78;4939455;29;20035;-94
2023/09/14 05:11:58;;;;;;;3.87;3.20;;;;;;;-148.15;100.00;61821.78;4957078;29;20027;-91
2023/09/14 05:14:24;;;;;;;6.93;3.40;;;;;;;-148.15;100.00;61821.78;4938969;29;20414;-90
2023/09/14 05:16:49;;;;;;;7.90;3.17;;;;;;;-148.15;100.00;61821.78;4955551;29;20055;-91
2023/09/14 05:19:14;;;;;;;5.03;3.33;;;;;;;-148.15;100.00;61821.78;4926434;29;20034;-87
2023/09/14 05:21:40;;;;;;;8.03;2.97;;;;;;;-148.15;100.00;61821.78;4914458;29;20028;-88
2023/09/14 05:24:05;;;;;;;5.83;3.50;;;;;;;-148.15;100.00;61821.78;4914536;29;20028;-88
2023/09/14 05:26:31;;;;;;;7.15;3.50;;;;;;;-148.15;100.00;61821.78;4934762;29;20066;-88
2023/09/14 05:28:56;;;;;;;3.93;2.97;;;;;;;-148.15;100.00;61821.78;4934349;29;20027;-87
2023/09/14 05:31:21;;;;;;;4.10;3.47;;;;;;;-148.15;100.00;61821.78;4951444;29;20039;-86
2023/09/14 05:33:46;;;;;;;7.13;3.20;;;;;;;-148.15;100.00;61821.78;4929287;29;20039;-87
2023/09/14 05:36:12;;;;;;;5.30;3.43;;;;;;;-148.15;100.00;61821.78;4916069;29;20058;-87
2023/09/14 05:38:38;;;;;;;6.10;3.30;;;;;;;-148.15;100.00;61821.78;4922192;29;20039;-86
2023/09/14 05:41:03;;;;;;;5.20;3.20;;;;;;;-148.15;100.00;61821.78;4942401;29;20405;-87
2023/09/14 05:43:28;;;;;;;6.33;3.83;;;;;;;-148.15;100.00;61821.78;4934676;29;20399;-88
2023/09/14 05:45:54;;;;;;;4.25;3.03;;;;;;;-148.15;100.00;61821.78;4934526;29;20490;-87
2023/09/14 05:48:19;;;;;;;5.57;3.30;;;;;;;-148.15;100.00;61821.78;4932238;29;20056;-86
2023/09/14 05:50:45;;;;;;;4.67;3.43;;;;;;;-148.15;100.00;61821.78;4934900;29;20395;-88
2023/09/14 05:53:10;;;;;;;8.95;3.70;;;;;;;-148.15;100.00;61821.78;4934676;29;20522;-88
2023/09/14 05:55:35;;;;;;;6.10;3.40;;;;;;;-148.15;100.00;61821.78;4932313;29;20032;-87
2023/09/14 05:58:01;;;;;;;5.10;3.80;;;;;;;-148.15;100.00;61821.78;4934071;29;20046;-87
2023/09/14 06:00:26;;;;;;;5.83;3.87;;;;;;;-148.15;100.00;61821.78;4923527;29;20863;-88
2023/09/14 06:02:52;;;;;;;7.00;3.80;;;;;;;-148.15;100.00;61821.78;4927521;29;20042;-89
2023/09/14 06:05:18;;;;;;;7.07;3.67;;;;;;;-148.15;100.00;61821.78;4936247;29;20024;-89
2023/09/14 06:07:44;;;;;;;7.88;4.22;;;;;;;-148.15;100.00;61821.78;4934862;29;20123;-88
2023/09/14 06:10:09;;;;;;;6.10;4.10;;;;;;;-148.15;100.00;61821.78;4935173;29;20032;-87
2023/09/14 06:12:35;;;;;;;7.18;4.15;;;;;;;-148.15;100.00;61821.78;4932640;29;20042;-86
2023/09/14 06:15:00;;;;;;;7.30;4.33;;;;;;;-148.15;100.00;61821.78;4936708;29;20042;-86
2023/09/14 06:17:25;;;;;;;9.97;4.57;;;;;;;-148.15;100.00;61821.78;4928858;29;20028;-87
2023/09/14 06:19:51;;;;;;;7.35;5.18;;;;;;;-148.15;100.00;61821.78;4915454;29;20504;-88
2023/09/14 06:22:16;;;;;;;9.10;5.07;;;;;;;-148.15;100.00;61821.78;4926130;29;20032;-87
2023/09/14 06:24:42;;;;;;;11.47;5.60;;;;;;;-148.15;100.00;61821.78;4933400;29;20035;-87
2023/09/14 06:27:08;;;;;;;5.63;4.43;;;;;;;-148.15;100.00;61821.78;4927958;29;20119;-86
2023/09/14 06:29:33;;;;;;;10.90;5.00;;;;;;;-148.15;100.00;61821.78;4914362;29;20036;-86
2023/09/14 06:31:58;;;;;;;10.47;5.50;;;;;;;-148.15;100.00;61821.78;4923261;29;20463;-87
2023/09/14 06:34:24;;;;;;;9.60;5.30;;;;;;;-148.15;100.00;61821.78;4932879;29;20479;-88
2023/09/14 06:36:49;;;;;;;10.93;6.00;;;;;;;-148.15;100.00;61821.78;4932555;29;20189;-88
2023/09/14 06:39:14;;;;;;;11.87;6.10;;;;;;;-148.15;100.00;61821.78;4938622;29;20067;-89
2023/09/14 06:41:40;;;;;;;9.00;5.47;;;;;;;-148.15;100.00;61821.78;4929117;29;20036;-88
2023/09/14 06:44:05;;;;;;;12.23;6.70;;;;;;;-148.15;100.00;61821.78;4915033;29;20443;-88
2023/09/14 06:46:31;;;;;;;12.53;6.80;;;;;;;-148.15;100.00;61821.78;4947402;29;20054;-86
2023/09/14 06:48:56;;;;;;;10.30;6.53;;;;;;;-148.15;100.00;61821.78;4934317;29;20039;-87
2023/09/14 06:51:22;;;;;;;12.93;6.80;;;;;;;-148.15;100.00;61821.78;4914586;29;20036;-88
2023/09/14 06:53:47;;;;;;;14.43;7.10;;;;;;;-148.15;100.00;61821.78;4927547;29;20057;-88
2023/09/14 06:56:13;;;;;;;10.70;7.17;;;;;;;-148.15;100.00;61821.78;4948759;29;20058;-87
2023/09/14 06:58:38;;;;;;;14.07;7.75;;;;;;;-148.15;100.00;61821.78;4952009;29;20114;-87
2023/09/14 07:01:05;;;;;;;9.60;7.07;;;;;;;-148.15;100.00;61821.78;4949448;29;20547;-88
2023/09/14 07:03:32;;;;;;;14.05;7.78;;;;;;;-148.15;100.00;61821.78;4952170;29;20066;-88
2023/09/14 07:05:58;;;;;;;16.30;9.40;;;;;;;-148.15;100.00;61821.78;4950917;29;20106;-89
2023/09/14 07:08:24;;;;;;;19.83;9.05;;;;;;;-148.15;100.00;61821.78;4933719;29;20436;-86
2023/09/14 07:10:49;;;;;;;27.90;8.83;;;;;;;-148.15;100.00;61821.78;4929041;29;20039;-87
2023/09/14 07:13:14;;;;;;;16.10;9.03;;;;;;;-148.15;100.00;61821.78;4933202;29;20491;-87
2023/09/14 07:15:40;;;;;;;20.23;9.20;;;;;;;-148.15;100.00;61821.78;4931499;29;20115;-87
2023/09/14 07:18:06;;;;;;;17.60;8.80;;;;;;;-148.15;100.00;61821.78;4928736;29;20384;-86
2023/09/14 07:20:31;;;;;;;19.90;9.13;;;;;;;-148.15;100.00;61821.78;4914094;29;20470;-87
2023/09/14 07:22:57;;;;;;;20.85;7.60;;;;;;;-148.15;100.00;61821.78;4913690;29;20043;-87
2023/09/14 07:25:23;;;;;;;24.50;8.07;;;;;;;-148.15;100.00;61821.78;4931321;29;20062;-88
2023/09/14 07:27:48;;;;;;;13.07;8.07;;;;;;;-148.15;100.00;61821.78;4953153;29;20644;-86
2023/09/14 07:30:14;;;;;;;14.23;8.10;;;;;;;-148.15;100.00;61821.78;4944960;29;20479;-88
2023/09/14 07:32:40;;;;;;;13.87;6.80;;;;;;;-148.15;100.00;61821.78;4904155;29;20036;-86
2023/09/14 07:35:07;;;;;;;16.45;7.57;;;;;;;-148.15;100.00;61821.78;4947319;29;20035;-89
2023/09/14 07:37:33;;;;;;;19.17;7.65;;;;;;;-148.15;100.00;61821.78;4929684;29;20478;-88
2023/09/14 07:39:58;;;;;;;17.88;8.13;;;;;;;-148.15;100.00;61821.78;4916978;29;20090;-89
2023/09/14 07:42:24;;;;;;;19.00;7.87;;;;;;;-148.15;100.00;61821.78;4925103;29;20114;-88
2023/09/14 07:44:49;;;;;;;13.83;7.13;;;;;;;-148.15;100.00;61821.78;4915515;29;20369;-87
2023/09/14 07:47:14;;;;;;;16.30;7.13;;;;;;;-148.15;100.00;61821.78;4920772;29;20035;-88
2023/09/14 07:49:44;;;;;;;17.13;7.63;;;;;;;-148.15;100.00;61821.78;4922783;29;20039;-87
2023/09/14 07:52:09;;;;;;;17.90;7.38;;;;;;;-148.15;100.00;61821.78;4927464;29;20047;-88
2023/09/14 07:54:35;;;;;;;12.25;6.85;;;;;;;-148.15;100.00;61821.78;4903674;29;20032;-88
2023/09/14 07:57:00;;;;;;;19.20;7.33;;;;;;;-148.15;100.00;61821.78;4936375;29;20028;-87
2023/09/14 07:59:27;;;;;;;14.40;7.10;;;;;;;-148.15;100.00;61821.78;4935301;29;20531;-88
2023/09/14 08:01:53;;;;;;;15.00;7.45;;;;;;;-148.15;100.00;61821.78;4939101;29;20396;-88
2023/09/14 08:04:18;;;;;;;15.07;6.90;;;;;;;-148.15;100.00;61821.78;4950982;29;20050;-88
2023/09/14 08:06:44;;;;;;;13.30;7.32;;;;;;;-148.15;100.00;61821.78;4920643;29;20034;-88
2023/09/14 08:09:09;;;;;;;18.00;7.23;;;;;;;-148.15;100.00;61821.78;4935762;29;20203;-88
2023/09/14 08:11:36;;;;;;;14.40;6.90;;;;;;;-148.15;100.00;61821.78;4933682;29;20027;-88
2023/09/14 08:14:03;;;;;;;13.43;6.65;;;;;;;-148.15;100.00;61821.78;4909206;29;20054;-88
2023/09/14 08:16:31;;;;;;;14.45;7.70;;;;;;;-148.15;100.00;61821.78;4914887;29;20032;-89
2023/09/14 08:18:57;;;;;;;15.02;6.88;;;;;;;-148.15;100.00;61821.78;4921883;29;20088;-88
2023/09/14 08:21:23;;;;;;;13.70;7.25;;;;;;;-148.15;100.00;61821.78;4915000;29;20036;-88
2023/09/14 08:23:48;;;;;;;12.40;6.97;;;;;;;-148.15;100.00;61821.78;4922868;29;20034;-88
2023/09/14 08:26:13;;;;;;;15.47;7.13;;;;;;;-148.15;100.00;61821.78;4940232;29;20036;-89
2023/09/14 08:28:39;;;;;;;13.57;6.90;;;;;;;-148.15;100.00;61821.78;4933664;29;20024;-89
2023/09/14 08:31:04;;;;;;;18.07;8.00;;;;;;;-148.15;100.00;61821.78;4936216;29;20495;-88
2023/09/14 08:33:29;;;;;;;18.50;8.70;;;;;;;-148.15;100.00;61821.78;4954838;29;20027;-88
2023/09/14 08:35:55;;;;;;;16.53;8.30;;;;;;;-148.15;100.00;61821.78;4943510;29;20086;-88
2023/09/14 08:38:21;;;;;;;13.40;8.30;;;;;;;-148.15;100.00;61821.78;4943626;29;20028;-87
2023/09/14 08:40:52;;;;;;;16.77;8.50;;;;;;;-148.15;100.00;61821.78;4938490;29;20031;-88
2023/09/14 08:43:19;;;;;;;12.27;8.02;;;;;;;-148.15;100.00;61821.78;4920843;29;20039;-88
2023/09/14 08:45:45;;;;;;;13.95;7.80;;;;;;;-148.15;100.00;61821.78;4935537;29;20135;-90
2023/09/14 08:48:13;;;;;;;16.63;7.80;;;;;;;-148.15;100.00;61821.78;4937150;29;20023;-88
2023/09/14 08:50:40;;;;;;;14.70;7.93;;;;;;;-148.15;100.00;61821.78;4935699;29;20028;-89
2023/09/14 08:53:05;;;;;;;15.05;8.35;;;;;;;-148.15;100.00;61821.78;4934366;29;20428;-90
2023/09/14 08:55:37;;;;;;;19.73;10.03;;;;;;;-148.15;100.00;61821.78;4935246;29;20039;-89
2023/09/14 08:58:03;;;;;;;14.13;8.23;;;;;;;-148.15;100.00;61821.78;4934804;29;20032;-90
2023/09/14 09:00:30;;;;;;;16.60;8.10;;;;;;;-148.15;100.00;61821.78;4935296;29;20591;-90
2023/09/14 09:02:57;;;;;;;12.97;8.17;;;;;;;-148.15;100.00;61821.78;4934504;29;20275;-89
2023/09/14 09:05:24;;;;;;;17.17;9.10;;;;;;;-148.15;100.00;61821.78;4918234;29;20050;-90
2023/09/14 09:07:51;;;;;;;14.90;8.80;;;;;;;-148.15;100.00;61821.78;4935271;29;20027;-89
2023/09/14 09:10:22;;;;;;;17.33;9.20;;;;;;;-148.15;100.00;61821.78;4934475;29;20032;-88
2023/09/14 09:12:51;;;;;;;16.00;9.07;;;;;;;-148.15;100.00;61821.78;4932398;29;20040;-89
2023/09/14 09:15:17;;;;;;;18.65;8.88;;;;;;;-148.15;100.00;61821.78;4935874;29;20028;-88
2023/09/14 09:17:44;;;;;;;20.75;10.40;;;;;;;-148.15;100.00;61821.78;4935203;29;20040;-88
2023/09/14 09:20:23;;;;;;;19.83;9.02;;;;;;;-148.15;100.00;61821.78;4922156;29;20043;-89
2023/09/14 09:22:50;;;;;;;17.77;9.33;;;;;;;-148.15;100.00;61821.78;4937241;29;20510;-88
2023/09/14 09:25:17;;;;;;;18.07;10.23;;;;;;;-148.15;100.00;61821.78;4945685;29;20805;-90
2023/09/14 09:27:43;;;;;;;15.68;8.18;;;;;;;-148.15;100.00;61821.78;4934328;29;20087;-88
2023/09/14 09:30:09;;;;;;;18.67;8.60;;;;;;;-148.15;100.00;61821.78;4935639;29;20487;-88
2023/09/14 09:32:37;;;;;;;16.92;7.70;;;;;;;-148.15;100.00;61821.78;4935556;29;20035;-88
2023/09/14 09:35:20;;;;;;;13.87;8.03;;;;;;;-148.15;100.00;61821.78;4946891;29;20649;-87
2023/09/14 09:37:46;;;;;;;14.00;7.90;;;;;;;-148.15;100.00;61821.78;4935867;29;20287;-88
2023/09/14 09:40:20;;;;;;;16.33;7.32;;;;;;;-148.15;100.00;61821.78;4943687;29;20095;-88
2023/09/14 09:42:45;;;;;;;10.90;6.65;;;;;;;-148.15;100.00;61821.78;4949976;29;20391;-89
2023/09/14 09:45:12;;;;;;;12.13;5.93;;;;;;;-148.15;100.00;61821.78;4949911;29;20032;-88
2023/09/14 09:47:39;;;;;;;10.48;6.43;;;;;;;-148.15;100.00;61821.78;4951430;29;20024;-89
2023/09/14 09:50:06;;;;;;;13.73;6.53;;;;;;;-148.15;100.00;61821.78;4956734;29;20035;-89
2023/09/14 09:52:33;;;;;;;11.20;6.73;;;;;;;-148.15;100.00;61821.78;4956987;29;20710;-89
2023/09/14 09:54:58;;;;;;;15.80;6.47;;;;;;;-148.15;100.00;61821.78;4940166;29;20112;-89
2023/09/14 09:57:29;;;;;;;14.10;7.00;;;;;;;-148.15;100.00;61821.78;4916778;29;20121;-89
2023/09/14 09:59:55;;;;;;;9.63;5.40;;;;;;;-148.15;100.00;61821.78;4920020;29;20111;-90
2023/09/14 10:02:31;;;;;;;9.70;5.00;;;;;;;-148.15;100.00;61821.78;4921571;29;20287;-90
2023/09/14 10:04:59;;;;;;;13.38;7.55;;;;;;;-148.15;100.00;61821.78;4919146;29;20039;-89
2023/09/14 10:07:25;;;;;;;13.73;7.80;;;;;;;-148.15;100.00;61821.78;4935318;29;20407;-89
2023/09/14 10:09:54;;;;;;;13.82;7.10;;;;;;;-148.15;100.00;61821.78;4924114;29;20028;-89
2023/09/14 10:12:31;;;;;;;11.47;6.10;;;;;;;-148.15;100.00;61821.78;4916848;29;20028;-88
2023/09/14 10:14:59;;;;;;;13.57;5.90;;;;;;;-148.15;100.00;61821.78;4915403;29;20288;-90
2023/09/14 10:17:30;;;;;;;11.00;6.43;;;;;;;-148.15;100.00;61821.78;4931858;29;20033;-89
2023/09/14 10:19:58;;;;;;;12.10;6.97;;;;;;;-148.15;100.00;61821.78;4953812;29;20035;-90
2023/09/14 10:22:25;;;;;;;8.35;5.57;;;;;;;-148.15;100.00;61821.78;4953950;29;20398;-90
2023/09/14 10:24:51;;;;;;;8.48;5.10;;;;;;;-148.15;100.00;61821.78;4915813;29;20471;-89
2023/09/14 10:27:17;;;;;;;7.78;5.53;;;;;;;-148.15;100.00;61821.78;4917460;29;20038;-90
2023/09/14 10:29:43;;;;;;;11.57;5.30;;;;;;;-148.15;100.00;61821.78;4921191;29;20039;-89
2023/09/14 10:32:14;;;;;;;7.75;4.40;;;;;;;-148.15;100.00;61821.78;4923803;29;20028;-90
2023/09/14 10:34:41;;;;;;;6.30;4.43;;;;;;;-148.15;100.00;61821.78;4934033;29;20111;-90
2023/09/14 10:37:06;;;;;;;6.37;4.50;;;;;;;-148.15;100.00;61821.78;4941470;29;20063;-89
2023/09/14 10:39:34;;;;;;;8.73;4.67;;;;;;;-148.15;100.00;61821.78;4921379;29;20760;-90
2023/09/14 10:41:59;;;;;;;8.32;4.85;;;;;;;-148.15;100.00;61821.78;4924837;29;20505;-90
2023/09/14 10:44:27;;;;;;;7.33;4.27;;;;;;;-148.15;100.00;61821.78;4934330;29;20031;-89
2023/09/14 10:46:56;;;;;;;8.98;5.25;;;;;;;-148.15;100.00;61821.78;4935217;29;20039;-89
2023/09/14 10:49:28;;;;;;;7.93;5.53;;;;;;;-148.15;100.00;61821.78;4954163;29;20091;-90
2023/09/14 10:51:55;;;;;;;8.13;5.00;;;;;;;-148.15;100.00;61821.78;4953342;29;20079;-89
2023/09/14 10:54:24;;;;;;;10.63;5.15;;;;;;;-148.15;100.00;61821.78;4953837;29;20412;-90
2023/09/14 10:56:55;;;;;;;7.57;4.90;;;;;;;-148.15;100.00;61821.78;4940746;29;20028;-91
2023/09/14 10:59:21;;;;;;;8.13;4.75;;;;;;;-148.15;100.00;61821.78;4932865;29;20104;-90
2023/09/14 11:01:48;;;;;;;7.70;4.70;;;;;;;-148.15;100.00;61821.78;4936287;29;20032;-90
2023/09/14 11:04:15;;;;;;;7.17;4.00;;;;;;;-148.15;100.00;61821.78;4952335;29;20043;-90